createdAt,value
2019-05-26T00:00:26.760Z,95152.33
2019-05-26T00:02:53.402Z,95152.70
2019-05-26T00:07:47.120Z,95158.11
2019-05-26T00:10:13.807Z,95155.25
2019-05-26T00:12:40.491Z,95160.03
2019-05-26T00:15:07.135Z,95153.06
2019-05-26T00:17:33.793Z,95154.13
2019-05-26T00:20:00.469Z,95158.28
2019-05-26T00:22:27.115Z,95153.75
2019-05-26T00:24:53.757Z,95159.67
2019-05-26T00:27:20.395Z,95155.25
2019-05-26T00:29:47.033Z,95150.83
2019-05-26T00:32:13.707Z,95162.06
2019-05-26T00:34:40.360Z,95157.89
2019-05-26T00:37:07.012Z,95160.58
2019-05-26T00:39:33.667Z,95163.35
2019-05-26T00:42:00.301Z,95159.31
2019-05-26T00:44:26.982Z,95164.72
2019-05-26T00:46:53.624Z,95161.33
2019-05-26T00:49:20.261Z,95159.94
2019-05-26T00:51:46.921Z,95160.09
2019-05-26T00:54:13.594Z,95157.03
2019-05-26T00:56:40.275Z,95163.70
2019-05-26T00:59:06.914Z,95163.95
2019-05-26T01:01:33.552Z,95165.86
2019-05-26T01:04:00.196Z,95167.25
2019-05-26T01:06:27.032Z,95167.63
2019-05-26T01:08:53.758Z,95169.89
2019-05-26T01:11:20.412Z,95168.37
2019-05-26T01:13:47.052Z,95173.17
2019-05-26T01:16:13.705Z,95173.91
2019-05-26T01:18:40.344Z,95167.48
2019-05-26T01:21:06.981Z,95175.95
2019-05-26T01:23:33.676Z,95181.23
2019-05-26T01:26:00.313Z,95183.87
2019-05-26T01:28:27.008Z,95186.78
2019-05-26T01:30:53.648Z,95186.78
2019-05-26T01:33:20.309Z,95184.52
2019-05-26T01:35:46.963Z,95190.31
2019-05-26T01:38:23.637Z,95179.48
2019-05-26T01:40:40.337Z,95187.42
2019-05-26T01:43:07.040Z,95179.75
2019-05-26T01:45:33.710Z,95175.22
2019-05-26T01:48:00.359Z,95160.00
2019-05-26T01:50:26.997Z,95171.44
2019-05-26T01:52:53.641Z,95169.94
2019-05-26T01:55:20.276Z,95167.43
2019-05-26T01:57:46.954Z,95168.07
2019-05-26T02:02:40.249Z,95161.39
2019-05-26T02:05:07.059Z,95160.25
2019-05-26T02:07:33.683Z,95163.91
2019-05-26T02:10:00.361Z,95162.02
2019-05-26T02:12:27.045Z,95168.84
2019-05-26T02:14:53.686Z,95158.91
2019-05-26T02:17:20.320Z,95158.02
2019-05-26T02:19:46.957Z,95157.64
2019-05-26T02:22:13.621Z,95168.06
2019-05-26T02:24:40.269Z,95168.06
2019-05-26T02:27:06.946Z,95165.19
2019-05-26T02:29:33.591Z,95168.98
2019-05-26T02:32:00.233Z,95166.82
2019-05-26T02:36:53.566Z,95172.01
2019-05-26T02:39:20.207Z,95173.25
2019-05-26T02:41:46.888Z,95175.39
2019-05-26T02:44:13.529Z,95176.02
2019-05-26T02:46:40.204Z,95181.81
2019-05-26T02:49:06.850Z,95185.46
2019-05-26T02:51:33.512Z,95181.31
2019-05-26T02:54:00.153Z,95178.30
2019-05-26T02:56:28.293Z,95178.16
2019-05-26T02:58:53.452Z,95180.94
2019-05-26T03:01:20.102Z,95182.05
2019-05-26T03:03:46.758Z,95178.30
2019-05-26T03:06:13.519Z,95178.43
2019-05-26T03:11:06.839Z,95176.52
2019-05-26T03:13:36.447Z,95173.40
2019-05-26T03:16:03.087Z,95173.40
2019-05-26T03:18:29.742Z,95178.67
2019-05-26T03:20:56.503Z,95184.08
2019-05-26T03:23:23.051Z,95187.34
2019-05-26T03:25:49.736Z,95185.45
2019-05-26T03:28:16.406Z,95186.20
2019-05-26T03:30:43.025Z,95183.32
2019-05-26T03:33:09.660Z,95183.19
2019-05-26T03:35:36.330Z,95179.67
2019-05-26T03:38:02.979Z,95187.84
2019-05-26T03:40:29.616Z,95187.58
2019-05-26T03:45:22.905Z,95187.08
2019-05-26T03:47:49.566Z,95187.16
2019-05-26T03:50:16.203Z,95187.20
2019-05-26T03:52:42.856Z,95191.52
2019-05-26T03:55:09.494Z,95198.55
2019-05-26T03:57:36.141Z,95196.69
2019-05-26T04:00:02.816Z,95198.13
2019-05-26T04:02:29.456Z,95200.30
2019-05-26T04:04:56.096Z,95203.04
2019-05-26T04:07:22.755Z,95206.23
2019-05-26T04:10:03.625Z,95198.41
2019-05-26T04:12:16.036Z,95202.39
2019-05-26T04:14:42.689Z,95204.73
2019-05-26T04:19:35.996Z,95200.19
2019-05-26T04:22:02.645Z,95205.28
2019-05-26T04:24:29.326Z,95203.92
2019-05-26T04:26:55.940Z,95200.95
2019-05-26T04:29:22.574Z,95206.80
2019-05-26T04:31:49.251Z,95206.63
2019-05-26T04:34:15.926Z,95205.22
2019-05-26T04:36:42.550Z,95207.84
2019-05-26T04:39:09.194Z,95210.59
2019-05-26T04:41:35.835Z,95212.81
2019-05-26T04:44:02.511Z,95208.11
2019-05-26T04:46:29.198Z,95208.47
2019-05-26T04:48:55.948Z,95207.59
2019-05-26T04:51:22.585Z,95206.17
2019-05-26T04:53:49.257Z,95199.91
2019-05-26T04:56:15.902Z,95201.78
2019-05-26T04:58:42.579Z,95206.63
2019-05-26T05:01:09.222Z,95210.13
2019-05-26T05:03:35.874Z,95209.08
2019-05-26T05:06:02.769Z,95211.50
2019-05-26T05:08:29.353Z,95214.41
2019-05-26T05:10:56.001Z,95211.70
2019-05-26T05:13:24.918Z,95213.03
2019-05-26T05:15:49.364Z,95213.29
2019-05-26T05:18:16.002Z,95208.97
2019-05-26T05:20:42.647Z,95209.32
2019-05-26T05:23:09.284Z,95208.28
2019-05-26T05:25:35.944Z,95209.67
2019-05-26T05:28:02.629Z,95215.23
2019-05-26T05:30:29.311Z,95204.06
2019-05-26T05:32:55.942Z,95193.18
2019-05-26T05:35:22.589Z,95202.52
2019-05-26T05:37:49.234Z,95195.42
2019-05-26T05:40:15.876Z,95200.47
2019-05-26T05:42:42.517Z,95197.22
2019-05-26T05:45:09.174Z,95200.75
2019-05-26T05:47:35.843Z,95200.69
2019-05-26T05:50:02.485Z,95201.03
2019-05-26T05:52:29.170Z,95194.81
2019-05-26T05:54:55.813Z,95194.69
2019-05-26T05:57:22.454Z,95199.06
2019-05-26T05:59:49.100Z,95203.67
2019-05-26T06:02:15.785Z,95210.09
2019-05-26T06:04:42.428Z,95211.20
2019-05-26T06:07:09.267Z,95203.14
2019-05-26T06:09:37.559Z,95207.94
2019-05-26T06:12:02.545Z,95208.66
2019-05-26T06:14:29.260Z,95206.08
2019-05-26T06:16:55.910Z,95207.67
2019-05-26T06:19:22.567Z,95206.45
2019-05-26T06:21:49.235Z,95207.33
2019-05-26T06:24:17.089Z,95209.70
2019-05-26T06:26:42.530Z,95206.29
2019-05-26T06:29:09.168Z,95214.12
2019-05-26T06:31:35.837Z,95206.16
2019-05-26T06:34:02.463Z,95207.02
2019-05-26T06:36:29.130Z,95197.16
2019-05-26T06:38:55.822Z,95203.07
2019-05-26T06:41:32.918Z,95206.34
2019-05-26T06:43:49.112Z,95199.52
2019-05-26T06:48:42.453Z,95202.73
2019-05-26T06:51:09.093Z,95202.06
2019-05-26T06:53:37.534Z,95201.05
2019-05-26T06:56:02.374Z,95205.69
2019-05-26T06:58:29.054Z,95208.17
2019-05-26T07:00:55.692Z,95214.58
2019-05-26T07:03:22.384Z,95215.41
2019-05-26T07:05:49.165Z,95210.20
2019-05-26T07:08:15.820Z,95212.91
2019-05-26T07:10:42.506Z,95215.33
2019-05-26T07:13:09.146Z,95213.56
2019-05-26T07:15:35.922Z,95217.36
2019-05-26T07:18:05.644Z,95217.83
2019-05-26T07:22:58.924Z,95220.61
2019-05-26T07:25:25.564Z,95215.08
2019-05-26T07:27:52.226Z,95218.45
2019-05-26T07:30:22.653Z,95213.02
2019-05-26T07:32:45.513Z,95209.70
2019-05-26T07:35:12.189Z,95210.48
2019-05-26T07:37:38.828Z,95210.12
2019-05-26T07:40:05.481Z,95203.03
2019-05-26T07:42:32.134Z,95212.63
2019-05-26T07:44:58.803Z,95205.48
2019-05-26T07:47:25.448Z,95206.45
2019-05-26T07:49:52.128Z,95201.02
2019-05-26T07:52:18.774Z,95211.25
2019-05-26T07:57:12.092Z,95198.33
2019-05-26T07:59:38.730Z,95212.98
2019-05-26T08:02:05.375Z,95207.16
2019-05-26T08:04:32.022Z,95206.94
2019-05-26T08:06:58.838Z,95206.58
2019-05-26T08:09:25.467Z,95205.02
2019-05-26T08:11:52.097Z,95203.88
2019-05-26T08:14:18.751Z,95202.33
2019-05-26T08:16:45.401Z,95202.31
2019-05-26T08:19:12.039Z,95206.74
2019-05-26T08:21:38.679Z,95210.38
2019-05-26T08:24:05.328Z,95201.69
2019-05-26T08:26:31.966Z,95202.61
2019-05-26T08:31:25.268Z,95203.30
2019-05-26T08:33:51.901Z,95194.11
2019-05-26T08:36:18.555Z,95204.38
2019-05-26T08:38:45.208Z,95198.23
2019-05-26T08:41:11.849Z,95192.22
2019-05-26T08:43:38.479Z,95188.08
2019-05-26T08:46:05.125Z,95189.73
2019-05-26T08:48:31.760Z,95184.23
2019-05-26T08:53:25.067Z,95182.69
2019-05-26T08:55:51.708Z,95179.91
2019-05-26T08:58:18.356Z,95180.95
2019-05-26T09:00:45.009Z,95181.58
2019-05-26T09:05:38.442Z,95171.72
2019-05-26T09:08:07.970Z,95176.98
2019-05-26T09:10:31.730Z,95172.22
2019-05-26T09:13:01.118Z,95176.77
2019-05-26T09:15:25.107Z,95175.00
2019-05-26T09:17:51.749Z,95175.92
2019-05-26T09:20:18.394Z,95182.45
2019-05-26T09:22:45.037Z,95179.12
2019-05-26T09:25:11.669Z,95180.76
2019-05-26T09:27:38.320Z,95181.89
2019-05-26T09:30:04.987Z,95179.62
2019-05-26T09:32:31.626Z,95183.88
2019-05-26T09:34:58.265Z,95173.25
2019-05-26T09:37:24.916Z,95172.58
2019-05-26T09:39:51.549Z,95169.80
2019-05-26T09:42:18.209Z,95171.28
2019-05-26T09:44:44.849Z,95172.05
2019-05-26T09:47:11.497Z,95167.70
2019-05-26T09:52:07.458Z,95159.70
2019-05-26T09:54:34.110Z,95163.24
2019-05-26T09:57:00.847Z,95153.27
2019-05-26T09:59:27.487Z,95144.13
2019-05-26T10:01:54.230Z,95151.63
2019-05-26T10:04:20.884Z,95148.59
2019-05-26T10:06:47.534Z,95148.43
2019-05-26T10:09:14.214Z,95144.64
2019-05-26T10:11:40.853Z,95142.70
2019-05-26T10:14:07.494Z,95137.28
2019-05-26T10:16:34.211Z,95133.61
2019-05-26T10:19:00.824Z,95132.19
2019-05-26T10:21:27.465Z,95125.27
2019-05-26T10:26:20.778Z,95120.94
2019-05-26T10:28:47.430Z,95134.92
2019-05-26T10:31:14.072Z,95134.00
2019-05-26T10:33:40.720Z,95130.21
2019-05-26T10:36:07.391Z,95141.08
2019-05-26T10:38:34.029Z,95136.82
2019-05-26T10:41:00.683Z,95123.77
2019-05-26T10:43:27.329Z,95119.86
2019-05-26T10:45:53.971Z,95117.88
2019-05-26T10:48:20.713Z,95120.87
2019-05-26T10:50:47.366Z,95123.81
2019-05-26T10:53:14.006Z,95118.54
2019-05-26T10:55:40.651Z,95115.47
2019-05-26T10:58:07.287Z,95114.03
2019-05-26T11:00:33.938Z,95114.09
2019-05-26T11:03:00.590Z,95111.64
2019-05-26T11:05:27.428Z,95114.50
2019-05-26T11:07:54.075Z,95108.77
2019-05-26T11:10:20.721Z,95116.27
2019-05-26T11:12:47.362Z,95102.42
2019-05-26T11:15:14.000Z,95104.31
2019-05-26T11:17:40.638Z,95107.05
2019-05-26T11:20:07.293Z,95101.92
2019-05-26T11:22:33.945Z,95094.30
2019-05-26T11:25:03.485Z,95099.56
2019-05-26T11:27:30.132Z,95097.20
2019-05-26T11:29:56.805Z,95090.17
2019-05-26T11:32:23.530Z,95086.80
2019-05-26T11:35:01.133Z,95086.34
2019-05-26T11:37:16.747Z,95086.50
2019-05-26T11:39:43.381Z,95082.63
2019-05-26T11:42:13.140Z,95090.80
2019-05-26T11:47:03.371Z,95079.02
2019-05-26T11:49:30.017Z,95080.81
2019-05-26T11:51:56.665Z,95081.45
2019-05-26T11:54:23.325Z,95073.58
2019-05-26T11:56:50.043Z,95076.37
2019-05-26T11:59:16.648Z,95081.29
2019-05-26T12:01:43.279Z,95076.86
2019-05-26T12:04:09.927Z,95071.52
2019-05-26T12:06:36.758Z,95069.36
2019-05-26T12:09:03.406Z,95072.14
2019-05-26T12:11:30.059Z,95071.90
2019-05-26T12:13:56.730Z,95075.89
2019-05-26T12:16:23.390Z,95071.30
2019-05-26T12:18:50.107Z,95069.08
2019-05-26T12:21:16.766Z,95072.49
2019-05-26T12:23:43.423Z,95069.80
2019-05-26T12:26:10.102Z,95068.02
2019-05-26T12:28:36.742Z,95066.72
2019-05-26T12:31:03.387Z,95063.98
2019-05-26T12:33:30.033Z,95064.19
2019-05-26T12:35:56.712Z,95063.77
2019-05-26T12:38:23.348Z,95058.80
2019-05-26T12:40:49.989Z,95058.92
2019-05-26T12:43:16.632Z,95054.11
2019-05-26T12:45:43.309Z,95050.58
2019-05-26T12:48:09.950Z,95053.48
2019-05-26T12:50:36.589Z,95046.91
2019-05-26T12:53:03.236Z,95044.88
2019-05-26T12:55:29.885Z,95043.89
2019-05-26T12:57:56.525Z,95044.88
2019-05-26T13:00:23.167Z,95041.34
2019-05-26T13:02:49.848Z,95032.75
2019-05-26T13:07:43.327Z,95032.18
2019-05-26T13:10:09.973Z,95032.02
2019-05-26T13:12:36.631Z,95025.19
2019-05-26T13:15:06.196Z,95030.92
2019-05-26T13:17:29.913Z,95023.25
2019-05-26T13:19:56.556Z,95025.75
2019-05-26T13:22:23.229Z,95026.31
2019-05-26T13:24:49.881Z,95020.77
2019-05-26T13:27:16.540Z,95018.69
2019-05-26T13:29:43.205Z,95015.16
2019-05-26T13:32:09.836Z,95014.01
2019-05-26T13:34:36.510Z,95016.66
2019-05-26T13:37:03.156Z,95011.95
2019-05-26T13:41:56.455Z,95017.07
2019-05-26T13:44:23.135Z,95011.63
2019-05-26T13:46:49.768Z,95009.48
2019-05-26T13:49:16.422Z,95007.98
2019-05-26T13:51:43.065Z,95008.36
2019-05-26T13:54:09.712Z,95011.42
2019-05-26T13:56:36.363Z,95011.84
2019-05-26T13:59:03.089Z,95012.10
2019-05-26T14:01:29.723Z,95000.30
2019-05-26T14:03:56.366Z,95001.03
2019-05-26T14:06:23.108Z,95004.00
2019-05-26T14:08:49.768Z,94998.38
2019-05-26T14:11:16.413Z,95002.31
2019-05-26T14:16:09.722Z,95006.69
2019-05-26T14:18:36.352Z,95006.59
2019-05-26T14:21:03.022Z,95007.67
2019-05-26T14:23:29.666Z,95006.14
2019-05-26T14:25:56.346Z,95006.23
2019-05-26T14:28:23.011Z,95003.30
2019-05-26T14:30:49.662Z,95005.25
2019-05-26T14:33:16.303Z,94999.58
2019-05-26T14:35:42.942Z,95001.48
2019-05-26T14:38:09.597Z,95003.58
2019-05-26T14:40:36.237Z,95005.34
2019-05-26T14:43:02.916Z,95002.82
2019-05-26T14:45:29.550Z,95005.09
2019-05-26T14:47:56.199Z,95000.20
2019-05-26T14:50:22.843Z,94996.44
2019-05-26T14:52:49.513Z,94999.48
2019-05-26T14:55:16.158Z,95001.86
2019-05-26T14:57:42.800Z,94997.31
2019-05-26T15:00:09.445Z,94993.64
2019-05-26T15:02:36.168Z,94999.29
2019-05-26T15:05:02.828Z,94994.16
2019-05-26T15:07:29.454Z,94988.66
2019-05-26T15:09:56.161Z,94984.59
2019-05-26T15:12:22.802Z,94989.42
2019-05-26T15:14:49.444Z,94994.98
2019-05-26T15:17:16.094Z,94991.44
2019-05-26T15:19:42.741Z,94991.39
2019-05-26T15:22:09.386Z,94996.05
2019-05-26T15:24:36.033Z,94998.89
2019-05-26T15:27:02.677Z,94993.66
2019-05-26T15:29:29.320Z,94994.39
2019-05-26T15:31:55.952Z,94994.48
2019-05-26T15:34:23.986Z,94992.45
2019-05-26T15:36:49.269Z,94994.27
2019-05-26T15:39:15.936Z,94993.73
2019-05-26T15:41:42.577Z,94994.39
2019-05-26T15:44:09.217Z,94999.73
2019-05-26T15:46:35.861Z,94987.44
2019-05-26T15:49:02.508Z,94996.42
2019-05-26T15:51:29.202Z,94995.28
2019-05-26T15:53:55.844Z,95002.61
2019-05-26T15:56:22.497Z,94998.20
2019-05-26T15:58:49.143Z,94998.02
2019-05-26T16:01:15.781Z,95000.20
2019-05-26T16:03:42.421Z,94996.86
2019-05-26T16:06:09.211Z,94999.94
2019-05-26T16:08:35.871Z,95002.27
2019-05-26T16:11:02.566Z,95008.77
2019-05-26T16:13:29.208Z,95006.79
2019-05-26T16:15:55.848Z,95005.58
2019-05-26T16:20:49.132Z,95012.25
2019-05-26T16:23:15.785Z,95008.06
2019-05-26T16:25:42.460Z,95009.01
2019-05-26T16:28:09.101Z,95013.46
2019-05-26T16:30:35.769Z,95011.30
2019-05-26T16:33:02.897Z,95018.50
2019-05-26T16:35:29.080Z,95015.77
2019-05-26T16:37:55.721Z,95016.28
2019-05-26T16:40:22.375Z,95021.67
2019-05-26T16:42:49.009Z,95023.55
2019-05-26T16:45:15.665Z,95022.93
2019-05-26T16:47:42.301Z,95021.58
2019-05-26T16:50:08.943Z,95032.95
2019-05-26T16:55:02.312Z,95036.08
2019-05-26T16:57:28.958Z,95034.47
2019-05-26T16:59:55.593Z,95034.17
2019-05-26T17:02:22.328Z,95039.74
2019-05-26T17:04:48.973Z,95037.59
2019-05-26T17:07:15.641Z,95031.07
2019-05-26T17:09:42.320Z,95038.48
2019-05-26T17:12:08.968Z,95049.13
2019-05-26T17:14:35.613Z,95046.94
2019-05-26T17:17:14.137Z,95050.34
2019-05-26T17:19:28.919Z,95051.16
2019-05-26T17:21:55.557Z,95051.61
2019-05-26T17:24:22.204Z,95057.22
2019-05-26T17:26:48.848Z,95057.51
2019-05-26T17:29:15.495Z,95053.97
2019-05-26T17:31:42.135Z,95056.20
2019-05-26T17:34:08.781Z,95058.30
2019-05-26T17:36:35.428Z,95058.31
2019-05-26T17:39:02.106Z,95055.86
2019-05-26T17:41:28.837Z,95052.91
2019-05-26T17:43:55.552Z,95057.34
2019-05-26T17:46:22.209Z,95057.55
2019-05-26T17:48:48.854Z,95059.23
2019-05-26T17:51:15.490Z,95059.57
2019-05-26T17:53:42.155Z,95055.81
2019-05-26T17:56:08.798Z,95054.91
2019-05-26T17:58:35.439Z,95055.55
2019-05-26T18:01:02.104Z,95056.84
2019-05-26T18:03:28.841Z,95057.92
2019-05-26T18:05:55.647Z,95061.15
2019-05-26T18:08:22.346Z,95061.65
2019-05-26T18:10:49.002Z,95068.28
2019-05-26T18:15:42.296Z,95070.39
2019-05-26T18:18:08.952Z,95073.55
2019-05-26T18:20:35.588Z,95073.49
2019-05-26T18:23:02.244Z,95079.58
2019-05-26T18:25:28.888Z,95086.77
2019-05-26T18:27:55.539Z,95093.27
2019-05-26T18:30:22.186Z,95097.14
2019-05-26T18:32:48.825Z,95101.97
2019-05-26T18:35:15.485Z,95103.67
2019-05-26T18:37:42.131Z,95101.88
2019-05-26T18:40:08.817Z,95114.56
2019-05-26T18:42:35.524Z,95107.78
2019-05-26T18:45:02.180Z,95108.82
2019-05-26T18:49:55.457Z,95108.47
2019-05-26T18:52:22.091Z,95107.71
2019-05-26T18:54:48.758Z,95103.73
2019-05-26T18:57:15.407Z,95107.43
2019-05-26T18:59:42.063Z,95105.97
2019-05-26T19:02:08.709Z,95110.08
2019-05-26T19:04:35.349Z,95104.02
2019-05-26T19:07:02.036Z,95121.80
2019-05-26T19:09:28.673Z,95122.58
2019-05-26T19:11:55.343Z,95123.78
2019-05-26T19:14:21.965Z,95124.42
2019-05-26T19:16:48.616Z,95129.55
2019-05-26T19:19:15.267Z,95130.13
2019-05-26T19:24:08.586Z,95129.02
2019-05-26T19:26:35.225Z,95143.28
2019-05-26T19:29:01.859Z,95136.98
2019-05-26T19:31:28.516Z,95145.83
2019-05-26T19:33:55.153Z,95140.73
2019-05-26T19:36:21.798Z,95140.71
2019-05-26T19:38:48.453Z,95141.59
2019-05-26T19:41:15.081Z,95136.55
2019-05-26T19:43:41.846Z,95144.14
2019-05-26T19:46:08.473Z,95140.16
2019-05-26T19:48:37.204Z,95143.03
2019-05-26T19:51:01.837Z,95137.45
2019-05-26T19:53:28.413Z,95142.34
2019-05-26T19:55:55.065Z,95141.23
2019-05-26T19:58:21.839Z,95142.38
2019-05-26T20:00:48.506Z,95137.96
2019-05-26T20:03:15.160Z,95124.02
2019-05-26T20:05:42.000Z,95130.92
2019-05-26T20:08:08.835Z,95127.22
2019-05-26T20:10:35.486Z,95121.11
2019-05-26T20:13:02.132Z,95118.73
2019-05-26T20:15:28.770Z,95108.43
2019-05-26T20:20:22.055Z,95119.81
2019-05-26T20:22:48.735Z,95116.66
2019-05-26T20:25:15.379Z,95113.53
2019-05-26T20:27:42.026Z,95116.31
2019-05-26T20:30:08.664Z,95120.66
2019-05-26T20:32:35.342Z,95116.22
2019-05-26T20:35:01.974Z,95124.50
2019-05-26T20:37:28.612Z,95119.31
2019-05-26T20:42:21.904Z,95126.93
2019-05-26T20:44:48.600Z,95129.83
2019-05-26T20:47:15.241Z,95136.16
2019-05-26T20:49:45.276Z,95138.67
2019-05-26T20:52:08.530Z,95142.42
2019-05-26T20:54:35.284Z,95143.96
2019-05-26T20:57:01.922Z,95146.48
2019-05-26T20:59:28.642Z,95151.86
2019-05-26T21:01:55.343Z,95153.75
2019-05-26T21:04:21.981Z,95151.40
2019-05-26T21:06:48.745Z,95152.30
2019-05-26T21:09:15.385Z,95157.44
2019-05-26T21:11:42.040Z,95154.81
2019-05-26T21:14:08.681Z,95151.56
2019-05-26T21:16:35.356Z,95153.48
2019-05-26T21:19:02.089Z,95148.30
2019-05-26T21:21:28.754Z,95155.42
2019-05-26T21:23:55.402Z,95159.48
2019-05-26T21:26:22.047Z,95158.42
2019-05-26T21:28:48.697Z,95152.66
2019-05-26T21:31:15.330Z,95147.44
2019-05-26T21:33:41.982Z,95141.88
2019-05-26T21:36:08.686Z,95139.50
2019-05-26T21:38:35.322Z,95149.34
2019-05-26T21:41:02.029Z,95147.34
2019-05-26T21:43:28.677Z,95144.33
2019-05-26T21:45:55.326Z,95138.84
2019-05-26T21:48:21.974Z,95141.37
2019-05-26T21:50:48.623Z,95149.16
2019-05-26T21:53:15.296Z,95145.06
2019-05-26T21:55:41.938Z,95139.89
2019-05-26T21:58:08.684Z,95131.69
2019-05-26T22:00:35.332Z,95130.39
2019-05-26T22:03:02.018Z,95128.13
2019-05-26T22:05:28.889Z,95132.66
2019-05-26T22:07:55.535Z,95138.41
2019-05-26T22:10:22.174Z,95142.66
2019-05-26T22:12:48.818Z,95139.25
2019-05-26T22:15:15.512Z,95137.83
2019-05-26T22:17:42.152Z,95136.56
2019-05-26T22:20:08.822Z,95140.36
2019-05-26T22:22:35.460Z,95137.08
2019-05-26T22:25:02.096Z,95140.89
2019-05-26T22:27:28.750Z,95132.18
2019-05-26T22:29:55.437Z,95140.61
2019-05-26T22:32:22.081Z,95141.61
2019-05-26T22:37:15.384Z,95134.73
2019-05-26T22:39:42.024Z,95142.75
2019-05-26T22:42:08.677Z,95146.63
2019-05-26T22:44:35.314Z,95142.12
2019-05-26T22:47:01.991Z,95141.61
2019-05-26T22:49:28.746Z,95130.72
2019-05-26T22:51:55.391Z,95125.77
2019-05-26T22:54:22.059Z,95120.21
2019-05-26T22:56:48.734Z,95118.53
2019-05-26T22:59:15.377Z,95117.34
2019-05-26T23:01:42.052Z,95123.75
2019-05-26T23:04:08.694Z,95120.75
2019-05-26T23:06:35.642Z,95117.52
2019-05-26T23:09:02.281Z,95124.84
2019-05-26T23:11:28.959Z,95133.22
2019-05-26T23:13:55.661Z,95140.50
2019-05-26T23:16:22.304Z,95140.79
2019-05-26T23:18:48.940Z,95140.79
2019-05-26T23:21:15.617Z,95143.34
2019-05-26T23:23:42.253Z,95142.18
2019-05-26T23:26:08.932Z,95138.90
2019-05-26T23:28:35.601Z,95139.99
2019-05-26T23:31:02.246Z,95138.48
2019-05-26T23:33:28.885Z,95139.49
2019-05-26T23:35:55.569Z,95135.36
2019-05-26T23:38:22.220Z,95135.52
2019-05-26T23:40:48.889Z,95130.98
2019-05-26T23:43:15.526Z,95132.58
2019-05-26T23:45:42.193Z,95130.22
2019-05-26T23:48:08.835Z,95127.00
2019-05-26T23:50:35.512Z,95125.61
2019-05-26T23:53:02.160Z,95125.86
2019-05-26T23:55:28.792Z,95126.11
2019-05-26T23:57:55.452Z,95120.22
